Wetterdaten: Mittwoch, 14.11.2012
Datum Zeit Temperatur Luftfeuchte Regen Wind Richtung Richtung Taupunkt Windchill Windben
14.11.2012 00:00 4,1 C 97 % 0,0 l/m 0,0 km/h (0 Bft) NO 45 3,7 C 4,1 C 0,0 km/h (0 Bft)
14.11.2012 00:05 4,1 C 97 % 0,0 l/m 0,0 km/h (0 Bft) O 90 3,7 C 4,1 C 0,0 km/h (0 Bft)
14.11.2012 00:10 4,1 C 97 % 0,0 l/m 0,0 km/h (0 Bft) O-NO 67 3,7 C 4,1 C 0,0 km/h (0 Bft)
14.11.2012 00:15 4,1 C 97 % 0,0 l/m 0,0 km/h (0 Bft) SW 225 3,7 C 4,1 C 0,0 km/h (0 Bft)
14.11.2012 00:20 4,1 C 97 % 0,0 l/m 0,5 km/h (0 Bft) N 360 3,7 C 4,1 C 1,6 km/h (1 Bft)
14.11.2012 00:25 4,1 C 97 % 0,0 l/m 0,5 km/h (0 Bft) NO 45 3,7 C 4,1 C 0,0 km/h (0 Bft)
14.11.2012 00:30 4,1 C 97 % 0,0 l/m 0,0 km/h (0 Bft) NO 45 3,7 C 4,1 C 0,0 km/h (0 Bft)
14.11.2012 00:35 4,1 C 97 % 0,0 l/m 0,0 km/h (0 Bft) N-NO 22 3,7 C 4,1 C 0,0 km/h (0 Bft)
14.11.2012 00:40 4,1 C 97 % 0,0 l/m 0,2 km/h (0 Bft) NW 315 3,7 C 4,1 C 0,0 km/h (0 Bft)
14.11.2012 00:45 4,1 C 97 % 0,0 l/m 0,5 km/h (0 Bft) N-NO 22 3,7 C 4,1 C 2,7 km/h (1 Bft)
14.11.2012 00:50 4,1 C 97 % 0,0 l/m 0,8 km/h (0 Bft) NO 45 3,7 C 4,1 C 4,3 km/h (1 Bft)
14.11.2012 00:55 4,1 C 97 % 0,0 l/m 0,8 km/h (0 Bft) N-NO 22 3,7 C 4,1 C 0,0 km/h (0 Bft)
14.11.2012 01:00 4,1 C 97 % 0,0 l/m 0,3 km/h (0 Bft) O-SO 112 3,7 C 4,1 C 0,0 km/h (0 Bft)
14.11.2012 01:05 4,1 C 97 % 0,0 l/m 0,0 km/h (0 Bft) O 90 3,7 C 4,1 C 0,0 km/h (0 Bft)
14.11.2012 01:10 4,1 C 97 % 0,0 l/m 0,2 km/h (0 Bft) W 270 3,7 C 4,1 C 0,0 km/h (0 Bft)
14.11.2012 01:15 4,1 C 97 % 0,0 l/m 0,6 km/h (0 Bft) NW 315 3,7 C 4,1 C 0,0 km/h (0 Bft)
14.11.2012 01:20 4,1 C 97 % 0,0 l/m 0,5 km/h (0 Bft) W 270 3,7 C 4,1 C 0,0 km/h (0 Bft)
14.11.2012 01:25 4,1 C 97 % 0,0 l/m 0,2 km/h (0 Bft) NO 45 3,7 C 4,1 C 0,0 km/h (0 Bft)
14.11.2012 01:30 4,0 C 97 % 0,0 l/m 0,3 km/h (0 Bft) N 360 3,6 C 4,0 C 1,8 km/h (1 Bft)
14.11.2012 01:35 4,0 C 97 % 0,0 l/m 0,3 km/h (0 Bft) NO 45 3,6 C 4,0 C 0,0 km/h (0 Bft)
14.11.2012 01:40 4,0 C 97 % 0,0 l/m 0,2 km/h (0 Bft) N-NO 22 3,6 C 4,0 C 0,0 km/h (0 Bft)
14.11.2012 01:45 4,0 C 97 % 0,0 l/m 0,0 km/h (0 Bft) NW 315 3,6 C 4,0 C 0,0 km/h (0 Bft)
14.11.2012 01:50 4,1 C 97 % 0,0 l/m 0,0 km/h (0 Bft) N-NW 337 3,7 C 4,0 C 0,0 km/h (0 Bft)
14.11.2012 01:55 4,1 C 97 % 0,0 l/m 0,0 km/h (0 Bft) W-NW 292 3,7 C 4,0 C 0,0 km/h (0 Bft)
14.11.2012 02:00 4,1 C 97 % 0,0 l/m 0,0 km/h (0 Bft) N-NO 22 3,7 C 4,0 C 0,0 km/h (0 Bft)
14.11.2012 02:05 4,1 C 97 % 0,0 l/m 0,0 km/h (0 Bft) N 360 3,7 C 4,0 C 0,0 km/h (0 Bft)
14.11.2012 02:10 4,1 C 97 % 0,0 l/m 0,0 km/h (0 Bft) S 180 3,7 C 4,0 C 0,0 km/h (0 Bft)
14.11.2012 02:15 4,1 C 97 % 0,0 l/m 0,0 km/h (0 Bft) SO 135 3,7 C 4,0 C 0,0 km/h (0 Bft)
14.11.2012 02:20 4,1 C 97 % 0,0 l/m 0,2 km/h (0 Bft) W 270 3,7 C 4,1 C 2,7 km/h (1 Bft)
14.11.2012 02:25 4,1 C 97 % 0,0 l/m 0,8 km/h (0 Bft) N-NW 337 3,7 C 4,0 C 1,8 km/h (1 Bft)
14.11.2012 02:30 4,1 C 97 % 0,0 l/m 1,4 km/h (1 Bft) S 180 3,7 C 4,0 C 2,4 km/h (1 Bft)
14.11.2012 02:35 4,0 C 97 % 0,0 l/m 0,8 km/h (0 Bft) S 180 3,6 C 4,0 C 0,0 km/h (0 Bft)
14.11.2012 02:40 4,0 C 97 % 0,0 l/m 0,3 km/h (0 Bft) W-SW 247 3,6 C 3,9 C 0,0 km/h (0 Bft)
14.11.2012 02:45 4,0 C 97 % 0,0 l/m 0,6 km/h (0 Bft) W-SW 247 3,6 C 3,9 C 0,0 km/h (0 Bft)
14.11.2012 02:50 3,9 C 98 % 0,0 l/m 0,8 km/h (0 Bft) SO 135 3,6 C 3,9 C 1,6 km/h (1 Bft)
14.11.2012 02:55 3,9 C 98 % 0,0 l/m 0,3 km/h (0 Bft) O-SO 112 3,6 C 3,9 C 0,0 km/h (0 Bft)
14.11.2012 03:00 3,9 C 98 % 0,0 l/m 0,2 km/h (0 Bft) N 360 3,6 C 3,8 C 2,4 km/h (1 Bft)
14.11.2012 03:05 3,8 C 98 % 0,0 l/m 0,2 km/h (0 Bft) N 360 3,5 C 3,8 C 0,0 km/h (0 Bft)
14.11.2012 03:10 3,8 C 97 % 0,0 l/m 0,2 km/h (0 Bft) O 90 3,4 C 3,7 C 0,0 km/h (0 Bft)
14.11.2012 03:15 3,8 C 97 % 0,0 l/m 0,2 km/h (0 Bft) NO 45 3,4 C 3,7 C 0,0 km/h (0 Bft)
14.11.2012 03:20 3,7 C 97 % 0,0 l/m 0,3 km/h (0 Bft) N-NO 22 3,3 C 3,7 C 0,0 km/h (0 Bft)
14.11.2012 03:25 3,7 C 97 % 0,0 l/m 0,3 km/h (0 Bft) N-NW 337 3,3 C 3,7 C 0,0 km/h (0 Bft)
14.11.2012 03:30 3,8 C 97 % 0,0 l/m 0,2 km/h (0 Bft) N 360 3,4 C 3,7 C 0,0 km/h (0 Bft)
14.11.2012 03:35 3,7 C 97 % 0,0 l/m 0,2 km/h (0 Bft) O 90 3,3 C 3,6 C 0,0 km/h (0 Bft)
14.11.2012 03:40 3,6 C 97 % 0,0 l/m 0,3 km/h (0 Bft) W-SW 247 3,2 C 3,6 C 1,8 km/h (1 Bft)
14.11.2012 03:45 3,6 C 98 % 0,0 l/m 0,3 km/h (0 Bft) S-SW 202 3,3 C 3,5 C 0,0 km/h (0 Bft)
14.11.2012 03:50 3,6 C 97 % 0,0 l/m 0,3 km/h (0 Bft) O-NO 67 3,2 C 3,4 C 0,0 km/h (0 Bft)
14.11.2012 03:55 3,6 C 97 % 0,0 l/m 0,3 km/h (0 Bft) O-SO 112 3,2 C 3,4 C 0,0 km/h (0 Bft)
14.11.2012 04:00 3,5 C 98 % 0,0 l/m 0,0 km/h (0 Bft) N-NW 337 3,2 C 3,4 C 0,0 km/h (0 Bft)
14.11.2012 04:05 3,5 C 97 % 0,0 l/m 0,0 km/h (0 Bft) W-SW 247 3,1 C 3,3 C 0,0 km/h (0 Bft)
14.11.2012 04:10 3,4 C 97 % 0,0 l/m 0,0 km/h (0 Bft) O 90 3,0 C 3,3 C 0,0 km/h (0 Bft)
14.11.2012 04:15 3,4 C 97 % 0,0 l/m 0,3 km/h (0 Bft) O 90 3,0 C 3,3 C 2,1 km/h (1 Bft)
14.11.2012 04:20 3,4 C 97 % 0,0 l/m 0,8 km/h (0 Bft) O 90 3,0 C 3,2 C 2,3 km/h (1 Bft)
14.11.2012 04:25 3,3 C 97 % 0,0 l/m 1,3 km/h (1 Bft) O-SO 112 2,9 C 3,2 C 0,0 km/h (0 Bft)
14.11.2012 04:30 3,3 C 97 % 0,0 l/m 0,8 km/h (0 Bft) O-SO 112 2,9 C 3,3 C 0,0 km/h (0 Bft)
14.11.2012 04:35 3,3 C 97 % 0,0 l/m 0,2 km/h (0 Bft) NO 45 2,9 C 3,2 C 0,0 km/h (0 Bft)
14.11.2012 04:40 3,3 C 97 % 0,0 l/m 0,2 km/h (0 Bft) NO 45 2,9 C 3,2 C 2,1 km/h (1 Bft)
14.11.2012 04:45 3,3 C 97 % 0,0 l/m 0,6 km/h (0 Bft) O-SO 112 2,9 C 3,2 C 2,6 km/h (1 Bft)
14.11.2012 04:50 3,2 C 97 % 0,0 l/m 1,0 km/h (0 Bft) NO 45 2,8 C 3,2 C 0,0 km/h (0 Bft)
14.11.2012 04:55 3,1 C 97 % 0,0 l/m 0,6 km/h (0 Bft) O-NO 67 2,7 C 3,1 C 0,0 km/h (0 Bft)
14.11.2012 05:00 3,0 C 97 % 0,0 l/m 0,8 km/h (0 Bft) O-NO 67 2,6 C 3,0 C 2,6 km/h (1 Bft)
14.11.2012 05:05 2,9 C 98 % 0,0 l/m 1,0 km/h (0 Bft) NO 45 2,6 C 2,9 C 0,0 km/h (0 Bft)
14.11.2012 05:10 2,9 C 98 % 0,0 l/m 0,6 km/h (0 Bft) NO 45 2,6 C 2,8 C 1,9 km/h (1 Bft)
14.11.2012 05:15 2,9 C 98 % 0,0 l/m 0,3 km/h (0 Bft) N-NO 22 2,6 C 2,8 C 0,0 km/h (0 Bft)
14.11.2012 05:20 3,0 C 97 % 0,0 l/m 0,3 km/h (0 Bft) O-SO 112 2,6 C 2,7 C 0,0 km/h (0 Bft)
14.11.2012 05:25 3,0 C 97 % 0,0 l/m 0,5 km/h (0 Bft) O 90 2,6 C 2,8 C 0,0 km/h (0 Bft)
14.11.2012 05:30 3,0 C 97 % 0,0 l/m 0,5 km/h (0 Bft) N-NO 22 2,6 C 2,8 C 2,1 km/h (1 Bft)
14.11.2012 05:35 3,0 C 97 % 0,0 l/m 0,5 km/h (0 Bft) N 360 2,6 C 2,8 C 3,7 km/h (1 Bft)
14.11.2012 05:40 3,0 C 97 % 0,0 l/m 0,8 km/h (0 Bft) N-NO 22 2,6 C 2,9 C 1,9 km/h (1 Bft)
14.11.2012 05:45 3,0 C 97 % 0,0 l/m 0,6 km/h (0 Bft) O-SO 112 2,6 C 2,9 C 0,0 km/h (0 Bft)
14.11.2012 05:50 3,0 C 97 % 0,0 l/m 0,2 km/h (0 Bft) O-SO 112 2,6 C 2,9 C 0,0 km/h (0 Bft)
14.11.2012 05:55 3,0 C 97 % 0,0 l/m 0,2 km/h (0 Bft) O-SO 112 2,6 C 2,8 C 0,0 km/h (0 Bft)
14.11.2012 06:00 3,0 C 97 % 0,0 l/m 0,2 km/h (0 Bft) NO 45 2,6 C 2,8 C 0,0 km/h (0 Bft)
14.11.2012 06:05 3,0 C 97 % 0,0 l/m 0,0 km/h (0 Bft) NO 45 2,6 C 2,9 C 0,0 km/h (0 Bft)
14.11.2012 06:10 2,9 C 98 % 0,0 l/m 0,6 km/h (0 Bft) NO 45 2,6 C 2,8 C 4,8 km/h (1 Bft)
14.11.2012 06:15 2,9 C 98 % 0,0 l/m 1,6 km/h (1 Bft) N-NO 22 2,6 C 2,8 C 1,6 km/h (1 Bft)
14.11.2012 06:20 2,9 C 98 % 0,0 l/m 1,3 km/h (1 Bft) O 90 2,6 C 2,8 C 0,0 km/h (0 Bft)
14.11.2012 06:25 2,9 C 98 % 0,0 l/m 0,2 km/h (0 Bft) O-NO 67 2,6 C 2,8 C 0,0 km/h (0 Bft)
14.11.2012 06:30 2,9 C 98 % 0,0 l/m 0,0 km/h (0 Bft) N 360 2,6 C 2,8 C 1,6 km/h (1 Bft)
14.11.2012 06:35 3,0 C 97 % 0,0 l/m 0,3 km/h (0 Bft) N-NO 22 2,6 C 2,8 C 1,8 km/h (1 Bft)
14.11.2012 06:40 3,0 C 97 % 0,0 l/m 1,1 km/h (1 Bft) W 270 2,6 C 2,9 C 2,3 km/h (1 Bft)
14.11.2012 06:45 3,0 C 97 % 0,0 l/m 1,8 km/h (1 Bft) W-NW 292 2,6 C 3,0 C 3,1 km/h (1 Bft)
14.11.2012 06:50 3,0 C 97 % 0,0 l/m 1,4 km/h (1 Bft) N 360 2,6 C 3,0 C 1,6 km/h (1 Bft)
14.11.2012 06:55 3,0 C 97 % 0,0 l/m 1,4 km/h (1 Bft) N-NO 22 2,6 C 3,0 C 0,0 km/h (0 Bft)
14.11.2012 07:00 3,0 C 97 % 0,0 l/m 0,6 km/h (0 Bft) N-NW 337 2,6 C 3,0 C 0,0 km/h (0 Bft)
14.11.2012 07:05 3,0 C 97 % 0,0 l/m 0,2 km/h (0 Bft) N 360 2,6 C 3,0 C 0,0 km/h (0 Bft)
14.11.2012 07:10 3,0 C 97 % 0,0 l/m 0,2 km/h (0 Bft) N 360 2,6 C 2,9 C 0,0 km/h (0 Bft)
14.11.2012 07:15 3,0 C 97 % 0,0 l/m 0,0 km/h (0 Bft) W-NW 292 2,6 C 2,9 C 0,0 km/h (0 Bft)
14.11.2012 07:20 3,0 C 97 % 0,0 l/m 0,0 km/h (0 Bft) N 360 2,6 C 2,9 C 0,0 km/h (0 Bft)
14.11.2012 07:25 2,9 C 98 % 0,0 l/m 0,3 km/h (0 Bft) W-NW 292 2,6 C 2,9 C 2,6 km/h (1 Bft)
14.11.2012 07:30 2,9 C 98 % 0,0 l/m 0,8 km/h (0 Bft) NO 45 2,6 C 2,8 C 0,0 km/h (0 Bft)
14.11.2012 07:35 2,9 C 98 % 0,0 l/m 1,1 km/h (1 Bft) N-NW 337 2,6 C 2,8 C 4,7 km/h (1 Bft)
14.11.2012 07:40 2,9 C 98 % 0,0 l/m 1,1 km/h (1 Bft) N-NW 337 2,6 C 2,8 C 0,0 km/h (0 Bft)
14.11.2012 07:45 2,8 C 98 % 0,0 l/m 1,1 km/h (1 Bft) O-SO 112 2,5 C 2,8 C 0,0 km/h (0 Bft)
14.11.2012 07:50 2,8 C 98 % 0,0 l/m 0,3 km/h (0 Bft) N-NO 22 2,5 C 2,8 C 0,0 km/h (0 Bft)
14.11.2012 07:55 2,8 C 98 % 0,0 l/m 0,8 km/h (0 Bft) N 360 2,5 C 2,7 C 1,6 km/h (1 Bft)
14.11.2012 08:00 2,7 C 98 % 0,0 l/m 0,5 km/h (0 Bft) W-NW 292 2,4 C 2,7 C 0,0 km/h (0 Bft)
14.11.2012 08:05 2,7 C 98 % 0,0 l/m 0,3 km/h (0 Bft) O-SO 112 2,4 C 2,7 C 1,9 km/h (1 Bft)
14.11.2012 08:10 2,7 C 98 % 0,0 l/m 0,3 km/h (0 Bft) S-SO 157 2,4 C 2,7 C 0,0 km/h (0 Bft)
14.11.2012 08:15 2,7 C 98 % 0,0 l/m 1,4 km/h (1 Bft) N-NW 337 2,4 C 2,7 C 3,4 km/h (1 Bft)
14.11.2012 08:20 2,6 C 98 % 0,0 l/m 1,3 km/h (1 Bft) N-NW 337 2,3 C 2,6 C 1,6 km/h (1 Bft)
14.11.2012 08:25 2,7 C 98 % 0,0 l/m 0,5 km/h (0 Bft) NO 45 2,4 C 2,7 C 0,0 km/h (0 Bft)
14.11.2012 08:30 2,7 C 98 % 0,0 l/m 1,0 km/h (0 Bft) W 270 2,4 C 2,7 C 1,9 km/h (1 Bft)
14.11.2012 08:35 2,7 C 98 % 0,0 l/m 1,1 km/h (1 Bft) NO 45 2,4 C 2,7 C 4,2 km/h (1 Bft)
14.11.2012 08:40 2,8 C 98 % 0,0 l/m 0,5 km/h (0 Bft) NO 45 2,5 C 2,8 C 0,0 km/h (0 Bft)
14.11.2012 08:45 2,8 C 98 % 0,0 l/m 0,5 km/h (0 Bft) NO 45 2,5 C 2,8 C 0,0 km/h (0 Bft)
14.11.2012 08:50 2,9 C 98 % 0,0 l/m 0,0 km/h (0 Bft) W 270 2,6 C 3,0 C 0,0 km/h (0 Bft)
14.11.2012 08:55 2,8 C 98 % 0,0 l/m 1,0 km/h (0 Bft) W 270 2,5 C 3,0 C 4,5 km/h (1 Bft)
14.11.2012 09:00 2,7 C 98 % 0,0 l/m 3,4 km/h (1 Bft) W 270 2,4 C 2,5 C 7,4 km/h (2 Bft)
14.11.2012 09:05 2,8 C 98 % 0,0 l/m 3,2 km/h (1 Bft) W-SW 247 2,5 C 2,6 C 0,0 km/h (0 Bft)
14.11.2012 09:10 2,8 C 98 % 0,0 l/m 1,6 km/h (1 Bft) N-NW 337 2,5 C 3,0 C 4,0 km/h (1 Bft)
14.11.2012 09:15 2,7 C 98 % 0,0 l/m 1,8 km/h (1 Bft) W-NW 292 2,4 C 3,0 C 5,1 km/h (1 Bft)
14.11.2012 09:20 2,8 C 98 % 0,0 l/m 2,6 km/h (1 Bft) W 270 2,5 C 2,9 C 2,4 km/h (1 Bft)
14.11.2012 09:25 2,8 C 98 % 0,0 l/m 2,6 km/h (1 Bft) W-SW 247 2,5 C 3,0 C 2,3 km/h (1 Bft)
14.11.2012 09:30 3,0 C 97 % 0,0 l/m 1,9 km/h (1 Bft) N-NW 337 2,6 C 3,1 C 2,3 km/h (1 Bft)
14.11.2012 09:35 3,0 C 97 % 0,0 l/m 2,1 km/h (1 Bft) W 270 2,6 C 3,2 C 3,7 km/h (1 Bft)
14.11.2012 09:40 3,0 C 97 % 0,0 l/m 2,7 km/h (1 Bft) NW 315 2,6 C 3,3 C 3,5 km/h (1 Bft)
14.11.2012 09:45 3,0 C 97 % 0,0 l/m 3,1 km/h (1 Bft) W-NW 292 2,6 C 3,1 C 2,9 km/h (1 Bft)
14.11.2012 09:50 2,9 C 98 % 0,0 l/m 4,3 km/h (1 Bft) W 270 2,6 C 2,3 C 8,2 km/h (2 Bft)
14.11.2012 09:55 2,8 C 98 % 0,0 l/m 5,0 km/h (1 Bft) N-NW 337 2,5 C 2,1 C 7,1 km/h (2 Bft)
14.11.2012 10:00 3,0 C 97 % 0,0 l/m 5,0 km/h (1 Bft) W-NW 292 2,6 C 2,1 C 7,2 km/h (2 Bft)
14.11.2012 10:05 3,0 C 97 % 0,0 l/m 4,7 km/h (1 Bft) N-NW 337 2,6 C 2,2 C 5,0 km/h (1 Bft)
14.11.2012 10:10 3,1 C 96 % 0,0 l/m 3,9 km/h (1 Bft) W 270 2,5 C 2,8 C 8,9 km/h (2 Bft)
14.11.2012 10:15 3,3 C 96 % 0,0 l/m 3,5 km/h (1 Bft) O-SO 112 2,7 C 3,2 C 3,1 km/h (1 Bft)
14.11.2012 10:20 3,4 C 96 % 0,0 l/m 2,4 km/h (1 Bft) O-SO 112 2,8 C 3,9 C 2,3 km/h (1 Bft)
14.11.2012 10:25 3,6 C 96 % 0,0 l/m 1,3 km/h (1 Bft) N 360 3,0 C 4,1 C 3,1 km/h (1 Bft)
14.11.2012 10:30 3,5 C 96 % 0,0 l/m 1,9 km/h (1 Bft) N-NW 337 2,9 C 4,3 C 6,8 km/h (2 Bft)
14.11.2012 10:35 3,4 C 96 % 0,0 l/m 2,7 km/h (1 Bft) N-NO 22 2,8 C 4,2 C 1,6 km/h (1 Bft)
14.11.2012 10:40 3,5 C 95 % 0,0 l/m 3,2 km/h (1 Bft) W-NW 292 2,8 C 4,1 C 3,1 km/h (1 Bft)
14.11.2012 10:45 3,5 C 95 % 0,0 l/m 3,2 km/h (1 Bft) W 270 2,8 C 4,1 C 4,7 km/h (1 Bft)
14.11.2012 10:50 3,7 C 95 % 0,0 l/m 3,4 km/h (1 Bft) N 360 3,0 C 3,9 C 5,1 km/h (1 Bft)
14.11.2012 10:55 3,6 C 94 % 0,0 l/m 4,0 km/h (1 Bft) SW 225 2,7 C 3,6 C 5,6 km/h (1 Bft)
14.11.2012 11:00 3,9 C 94 % 0,0 l/m 3,5 km/h (1 Bft) W-SW 247 3,0 C 3,9 C 0,0 km/h (0 Bft)
14.11.2012 11:05 3,8 C 94 % 0,0 l/m 2,7 km/h (1 Bft) N-NW 337 2,9 C 4,4 C 4,0 km/h (1 Bft)
14.11.2012 11:10 3,9 C 93 % 0,0 l/m 2,6 km/h (1 Bft) S-SO 157 2,9 C 4,5 C 4,2 km/h (1 Bft)
14.11.2012 11:15 4,0 C 93 % 0,0 l/m 2,1 km/h (1 Bft) W 270 3,0 C 4,7 C 2,1 km/h (1 Bft)
14.11.2012 11:20 3,9 C 93 % 0,0 l/m 2,6 km/h (1 Bft) NW 315 2,9 C 4,8 C 3,2 km/h (1 Bft)
14.11.2012 11:25 3,9 C 92 % 0,0 l/m 2,7 km/h (1 Bft) W 270 2,7 C 4,8 C 1,9 km/h (1 Bft)
14.11.2012 11:30 4,2 C 92 % 0,0 l/m 2,6 km/h (1 Bft) N 360 3,0 C 4,8 C 4,3 km/h (1 Bft)
14.11.2012 11:35 4,2 C 92 % 0,0 l/m 2,3 km/h (1 Bft) S-SW 202 3,0 C 4,8 C 0,0 km/h (0 Bft)
14.11.2012 11:40 4,0 C 91 % 0,0 l/m 2,9 km/h (1 Bft) NW 315 2,7 C 5,0 C 3,4 km/h (1 Bft)
14.11.2012 11:45 4,1 C 90 % 0,0 l/m 3,2 km/h (1 Bft) W-NW 292 2,6 C 4,9 C 3,4 km/h (1 Bft)
14.11.2012 11:50 4,2 C 89 % 0,0 l/m 3,9 km/h (1 Bft) N 360 2,6 C 4,7 C 8,4 km/h (2 Bft)
14.11.2012 11:55 4,4 C 89 % 0,0 l/m 3,9 km/h (1 Bft) W-NW 292 2,7 C 4,7 C 4,7 km/h (1 Bft)
14.11.2012 12:00 4,5 C 89 % 0,0 l/m 2,9 km/h (1 Bft) NW 315 2,8 C 5,4 C 4,0 km/h (1 Bft)
14.11.2012 12:05 4,5 C 89 % 0,0 l/m 2,1 km/h (1 Bft) N-NW 337 2,8 C 5,4 C 3,5 km/h (1 Bft)
14.11.2012 12:10 4,4 C 88 % 0,0 l/m 1,8 km/h (1 Bft) N-NW 337 2,6 C 5,7 C 3,2 km/h (1 Bft)
14.11.2012 12:15 4,4 C 88 % 0,0 l/m 1,6 km/h (1 Bft) NW 315 2,6 C 5,7 C 2,7 km/h (1 Bft)
14.11.2012 12:20 4,6 C 88 % 0,0 l/m 2,7 km/h (1 Bft) N 360 2,8 C 5,8 C 3,7 km/h (1 Bft)
14.11.2012 12:25 4,6 C 87 % 0,0 l/m 3,2 km/h (1 Bft) SW 225 2,6 C 5,7 C 5,1 km/h (1 Bft)
14.11.2012 12:30 4,7 C 88 % 0,0 l/m 2,9 km/h (1 Bft) N 360 2,9 C 5,9 C 2,3 km/h (1 Bft)
14.11.2012 12:35 4,9 C 88 % 0,0 l/m 2,3 km/h (1 Bft) NW 315 3,1 C 5,9 C 2,4 km/h (1 Bft)
14.11.2012 12:40 4,6 C 87 % 0,0 l/m 2,9 km/h (1 Bft) W-SW 247 2,6 C 5,9 C 6,4 km/h (2 Bft)
14.11.2012 12:45 5,0 C 88 % 0,0 l/m 3,5 km/h (1 Bft) W 270 3,2 C 5,6 C 5,6 km/h (1 Bft)
14.11.2012 12:50 5,0 C 87 % 0,0 l/m 3,4 km/h (1 Bft) NW 315 3,0 C 5,8 C 5,1 km/h (1 Bft)
14.11.2012 12:55 4,7 C 86 % 0,0 l/m 4,2 km/h (1 Bft) W-NW 292 2,6 C 5,4 C 5,6 km/h (1 Bft)
14.11.2012 13:00 4,9 C 87 % 0,0 l/m 3,5 km/h (1 Bft) S-SO 157 2,9 C 5,6 C 0,0 km/h (0 Bft)
14.11.2012 13:05 5,2 C 88 % 0,0 l/m 1,9 km/h (1 Bft) W-SW 247 3,4 C 6,0 C 6,3 km/h (2 Bft)
14.11.2012 13:10 5,0 C 88 % 0,0 l/m 1,0 km/h (0 Bft) S-SW 202 3,2 C 6,0 C 3,1 km/h (1 Bft)
14.11.2012 13:15 5,1 C 89 % 0,0 l/m 1,4 km/h (1 Bft) W-NW 292 3,4 C 6,1 C 1,9 km/h (1 Bft)
14.11.2012 13:20 5,0 C 89 % 0,0 l/m 2,6 km/h (1 Bft) W 270 3,3 C 6,0 C 6,6 km/h (2 Bft)
14.11.2012 13:25 4,8 C 89 % 0,0 l/m 3,7 km/h (1 Bft) SW 225 3,1 C 5,5 C 3,1 km/h (1 Bft)
14.11.2012 13:30 4,9 C 89 % 0,0 l/m 4,0 km/h (1 Bft) W-SW 247 3,2 C 5,2 C 2,9 km/h (1 Bft)
14.11.2012 13:35 4,9 C 89 % 0,0 l/m 2,6 km/h (1 Bft) W-SW 247 3,2 C 5,6 C 2,1 km/h (1 Bft)
14.11.2012 13:40 4,9 C 89 % 0,0 l/m 2,3 km/h (1 Bft) N 360 3,2 C 5,7 C 0,0 km/h (0 Bft)
14.11.2012 13:45 4,8 C 89 % 0,0 l/m 3,1 km/h (1 Bft) NO 45 3,1 C 5,6 C 4,3 km/h (1 Bft)
14.11.2012 13:50 4,9 C 89 % 0,0 l/m 1,9 km/h (1 Bft) N 360 3,2 C 5,6 C 1,6 km/h (1 Bft)
14.11.2012 13:55 4,6 C 89 % 0,0 l/m 1,8 km/h (1 Bft) W-NW 292 2,9 C 5,5 C 4,3 km/h (1 Bft)
14.11.2012 14:00 4,6 C 89 % 0,0 l/m 3,1 km/h (1 Bft) W-SW 247 2,9 C 5,4 C 5,6 km/h (1 Bft)
14.11.2012 14:05 4,5 C 89 % 0,0 l/m 4,2 km/h (1 Bft) W-NW 292 2,8 C 4,7 C 6,3 km/h (2 Bft)
14.11.2012 14:10 4,4 C 89 % 0,0 l/m 4,7 km/h (1 Bft) W 270 2,7 C 4,2 C 9,0 km/h (2 Bft)
14.11.2012 14:15 4,3 C 89 % 0,0 l/m 4,8 km/h (1 Bft) N-NW 337 2,7 C 3,9 C 7,7 km/h (2 Bft)
14.11.2012 14:20 4,2 C 90 % 0,0 l/m 4,8 km/h (1 Bft) W-SW 247 2,7 C 3,7 C 7,9 km/h (2 Bft)
14.11.2012 14:25 4,1 C 89 % 0,0 l/m 5,1 km/h (1 Bft) W 270 2,5 C 3,4 C 6,4 km/h (2 Bft)
14.11.2012 14:30 4,1 C 89 % 0,0 l/m 4,5 km/h (1 Bft) W 270 2,5 C 3,6 C 3,4 km/h (1 Bft)
14.11.2012 14:35 4,2 C 90 % 0,0 l/m 3,5 km/h (1 Bft) W-SW 247 2,7 C 4,2 C 2,9 km/h (1 Bft)
14.11.2012 14:40 4,2 C 90 % 0,0 l/m 2,9 km/h (1 Bft) S-SW 202 2,7 C 4,4 C 2,1 km/h (1 Bft)
14.11.2012 14:45 4,2 C 90 % 0,0 l/m 3,1 km/h (1 Bft) W-NW 292 2,7 C 4,3 C 5,0 km/h (1 Bft)
14.11.2012 14:50 4,1 C 90 % 0,0 l/m 3,7 km/h (1 Bft) W-NW 292 2,6 C 4,0 C 9,3 km/h (2 Bft)
14.11.2012 14:55 3,9 C 90 % 0,0 l/m 3,5 km/h (1 Bft) W-NW 292 2,4 C 3,9 C 1,8 km/h (1 Bft)
14.11.2012 15:00 4,0 C 90 % 0,0 l/m 3,2 km/h (1 Bft) N 360 2,5 C 4,1 C 5,8 km/h (2 Bft)
14.11.2012 15:05 4,1 C 90 % 0,0 l/m 2,7 km/h (1 Bft) W-NW 292 2,6 C 4,4 C 4,5 km/h (1 Bft)
14.11.2012 15:10 4,0 C 90 % 0,0 l/m 3,5 km/h (1 Bft) W-NW 292 2,5 C 3,9 C 3,1 km/h (1 Bft)
14.11.2012 15:15 4,1 C 91 % 0,0 l/m 3,5 km/h (1 Bft) W 270 2,8 C 3,9 C 2,4 km/h (1 Bft)
14.11.2012 15:20 4,0 C 91 % 0,0 l/m 3,2 km/h (1 Bft) N-NW 337 2,7 C 4,1 C 5,3 km/h (1 Bft)
14.11.2012 15:25 4,0 C 91 % 0,0 l/m 3,1 km/h (1 Bft) N-NW 337 2,7 C 4,2 C 4,3 km/h (1 Bft)
14.11.2012 15:30 3,8 C 91 % 0,0 l/m 2,7 km/h (1 Bft) W-NW 292 2,5 C 4,2 C 3,1 km/h (1 Bft)
14.11.2012 15:35 3,8 C 91 % 0,0 l/m 2,7 km/h (1 Bft) O-NO 67 2,5 C 4,1 C 2,6 km/h (1 Bft)
14.11.2012 15:40 3,7 C 92 % 0,0 l/m 3,7 km/h (1 Bft) NW 315 2,5 C 3,6 C 3,7 km/h (1 Bft)
14.11.2012 15:45 3,7 C 92 % 0,0 l/m 3,4 km/h (1 Bft) W-SW 247 2,5 C 3,6 C 4,3 km/h (1 Bft)
14.11.2012 15:50 3,7 C 92 % 0,0 l/m 2,9 km/h (1 Bft) W-SW 247 2,5 C 3,8 C 0,0 km/h (0 Bft)
14.11.2012 15:55 3,7 C 92 % 0,0 l/m 3,7 km/h (1 Bft) W-NW 292 2,5 C 3,3 C 5,1 km/h (1 Bft)
14.11.2012 16:00 3,6 C 92 % 0,0 l/m 3,5 km/h (1 Bft) W-SW 247 2,4 C 3,3 C 4,7 km/h (1 Bft)
14.11.2012 16:05 3,6 C 92 % 0,0 l/m 3,9 km/h (1 Bft) W-NW 292 2,4 C 3,2 C 3,9 km/h (1 Bft)
14.11.2012 16:10 3,5 C 92 % 0,0 l/m 3,7 km/h (1 Bft) W-SW 247 2,3 C 3,1 C 3,1 km/h (1 Bft)
14.11.2012 16:15 3,5 C 92 % 0,0 l/m 3,5 km/h (1 Bft) N 360 2,3 C 3,1 C 3,4 km/h (1 Bft)
14.11.2012 16:20 3,6 C 93 % 0,0 l/m 3,2 km/h (1 Bft) N-NW 337 2,6 C 3,2 C 4,8 km/h (1 Bft)
14.11.2012 16:25 3,5 C 93 % 0,0 l/m 2,7 km/h (1 Bft) N 360 2,5 C 3,5 C 0,0 km/h (0 Bft)
14.11.2012 16:30 3,5 C 93 % 0,0 l/m 2,1 km/h (1 Bft) W-SW 247 2,5 C 3,4 C 0,0 km/h (0 Bft)
14.11.2012 16:35 3,5 C 93 % 0,0 l/m 1,3 km/h (1 Bft) NO 45 2,5 C 3,4 C 2,3 km/h (1 Bft)
14.11.2012 16:40 3,5 C 93 % 0,0 l/m 1,4 km/h (1 Bft) O-SO 112 2,5 C 3,4 C 0,0 km/h (0 Bft)
14.11.2012 16:45 3,5 C 94 % 0,0 l/m 1,8 km/h (1 Bft) N-NW 337 2,6 C 3,4 C 2,3 km/h (1 Bft)
14.11.2012 16:50 3,5 C 94 % 0,0 l/m 1,6 km/h (1 Bft) W-SW 247 2,6 C 3,4 C 2,1 km/h (1 Bft)
14.11.2012 16:55 3,5 C 94 % 0,0 l/m 2,3 km/h (1 Bft) N-NW 337 2,6 C 3,4 C 2,3 km/h (1 Bft)
14.11.2012 17:00 3,5 C 94 % 0,0 l/m 2,3 km/h (1 Bft) W-NW 292 2,6 C 3,4 C 2,6 km/h (1 Bft)
14.11.2012 17:05 3,5 C 94 % 0,0 l/m 2,3 km/h (1 Bft) W-NW 292 2,6 C 3,4 C 3,5 km/h (1 Bft)
14.11.2012 17:10 3,5 C 94 % 0,0 l/m 1,9 km/h (1 Bft) W 270 2,6 C 3,4 C 2,7 km/h (1 Bft)
14.11.2012 17:15 3,5 C 94 % 0,0 l/m 1,0 km/h (0 Bft) N 360 2,6 C 3,4 C 0,0 km/h (0 Bft)
14.11.2012 17:20 3,5 C 94 % 0,0 l/m 1,4 km/h (1 Bft) W 270 2,6 C 3,4 C 1,9 km/h (1 Bft)
14.11.2012 17:25 3,5 C 95 % 0,0 l/m 1,4 km/h (1 Bft) SO 135 2,8 C 3,4 C 0,0 km/h (0 Bft)
14.11.2012 17:30 3,4 C 95 % 0,0 l/m 1,6 km/h (1 Bft) N-NO 22 2,7 C 3,4 C 2,3 km/h (1 Bft)
14.11.2012 17:35 3,4 C 95 % 0,0 l/m 1,4 km/h (1 Bft) N-NW 337 2,7 C 3,4 C 0,0 km/h (0 Bft)
14.11.2012 17:40 3,5 C 95 % 0,0 l/m 1,0 km/h (0 Bft) N-NW 337 2,8 C 3,4 C 3,1 km/h (1 Bft)
14.11.2012 17:45 3,4 C 95 % 0,0 l/m 1,8 km/h (1 Bft) W-NW 292 2,7 C 3,4 C 0,0 km/h (0 Bft)
14.11.2012 17:50 3,3 C 95 % 0,0 l/m 2,1 km/h (1 Bft) W-NW 292 2,6 C 3,3 C 2,3 km/h (1 Bft)
14.11.2012 17:55 3,3 C 95 % 0,0 l/m 1,9 km/h (1 Bft) O-SO 112 2,6 C 3,3 C 2,3 km/h (1 Bft)
14.11.2012 18:00 3,3 C 95 % 0,0 l/m 2,1 km/h (1 Bft) NW 315 2,6 C 3,3 C 3,2 km/h (1 Bft)
14.11.2012 18:05 3,3 C 95 % 0,0 l/m 1,6 km/h (1 Bft) NW 315 2,6 C 3,3 C 3,4 km/h (1 Bft)
14.11.2012 18:10 3,3 C 95 % 0,0 l/m 1,0 km/h (0 Bft) N 360 2,6 C 3,3 C 0,0 km/h (0 Bft)
14.11.2012 18:15 3,3 C 95 % 0,0 l/m 0,8 km/h (0 Bft) W 270 2,6 C 3,3 C 2,4 km/h (1 Bft)
14.11.2012 18:20 3,3 C 95 % 0,0 l/m 1,1 km/h (1 Bft) N-NW 337 2,6 C 3,3 C 3,1 km/h (1 Bft)
14.11.2012 18:25 3,4 C 95 % 0,0 l/m 1,1 km/h (1 Bft) W-NW 292 2,7 C 3,3 C 0,0 km/h (0 Bft)
14.11.2012 18:30 3,3 C 95 % 0,0 l/m 0,8 km/h (0 Bft) W-NW 292 2,6 C 3,3 C 0,0 km/h (0 Bft)
14.11.2012 18:35 3,3 C 95 % 0,0 l/m 1,1 km/h (1 Bft) N 360 2,6 C 3,3 C 0,0 km/h (0 Bft)
14.11.2012 18:40 3,3 C 95 % 0,0 l/m 1,6 km/h (1 Bft) N-NW 337 2,6 C 3,3 C 2,4 km/h (1 Bft)
14.11.2012 18:45 3,4 C 95 % 0,0 l/m 1,4 km/h (1 Bft) W-NW 292 2,7 C 3,3 C 1,8 km/h (1 Bft)
14.11.2012 18:50 3,3 C 95 % 0,0 l/m 0,8 km/h (0 Bft) W-SW 247 2,6 C 3,3 C 0,0 km/h (0 Bft)
14.11.2012 18:55 3,3 C 95 % 0,0 l/m 0,8 km/h (0 Bft) W-NW 292 2,6 C 3,3 C 2,3 km/h (1 Bft)
14.11.2012 19:00 3,2 C 95 % 0,0 l/m 1,1 km/h (1 Bft) W-NW 292 2,5 C 3,2 C 0,0 km/h (0 Bft)
14.11.2012 19:05 3,2 C 95 % 0,0 l/m 0,6 km/h (0 Bft) N 360 2,5 C 3,2 C 0,0 km/h (0 Bft)
14.11.2012 19:10 3,2 C 95 % 0,0 l/m 0,8 km/h (0 Bft) N-NW 337 2,5 C 3,1 C 0,0 km/h (0 Bft)
14.11.2012 19:15 3,0 C 95 % 0,0 l/m 1,9 km/h (1 Bft) N-NW 337 2,3 C 3,0 C 2,6 km/h (1 Bft)
14.11.2012 19:20 3,0 C 95 % 0,0 l/m 2,1 km/h (1 Bft) W-NW 292 2,3 C 2,9 C 3,1 km/h (1 Bft)
14.11.2012 19:25 3,0 C 95 % 0,0 l/m 1,6 km/h (1 Bft) N-NW 337 2,3 C 2,9 C 4,3 km/h (1 Bft)
14.11.2012 19:30 3,0 C 95 % 0,0 l/m 2,4 km/h (1 Bft) W-NW 292 2,3 C 2,8 C 4,3 km/h (1 Bft)
14.11.2012 19:35 2,9 C 96 % 0,0 l/m 2,4 km/h (1 Bft) W-NW 292 2,3 C 2,8 C 4,8 km/h (1 Bft)
14.11.2012 19:40 2,9 C 96 % 0,0 l/m 1,6 km/h (1 Bft) N-NW 337 2,3 C 2,7 C 1,8 km/h (1 Bft)
14.11.2012 19:45 2,9 C 96 % 0,0 l/m 1,4 km/h (1 Bft) W-NW 292 2,3 C 2,7 C 1,6 km/h (1 Bft)
14.11.2012 19:50 2,9 C 96 % 0,0 l/m 1,1 km/h (1 Bft) N-NO 22 2,3 C 2,7 C 0,0 km/h (0 Bft)
14.11.2012 19:55 2,9 C 96 % 0,0 l/m 0,8 km/h (0 Bft) W-NW 292 2,3 C 2,7 C 0,0 km/h (0 Bft)
14.11.2012 20:00 2,9 C 96 % 0,0 l/m 0,0 km/h (0 Bft) NW 315 2,3 C 2,7 C 0,0 km/h (0 Bft)
14.11.2012 20:05 2,9 C 96 % 0,0 l/m 0,5 km/h (0 Bft) NO 45 2,3 C 2,7 C 0,0 km/h (0 Bft)
14.11.2012 20:10 2,8 C 96 % 0,0 l/m 1,3 km/h (1 Bft) W-NW 292 2,2 C 2,6 C 3,1 km/h (1 Bft)
14.11.2012 20:15 2,8 C 96 % 0,0 l/m 1,1 km/h (1 Bft) W-NW 292 2,2 C 2,6 C 2,3 km/h (1 Bft)
14.11.2012 20:20 2,8 C 96 % 0,0 l/m 0,6 km/h (0 Bft) NW 315 2,2 C 2,6 C 0,0 km/h (0 Bft)
14.11.2012 20:25 2,8 C 96 % 0,0 l/m 0,5 km/h (0 Bft) W 270 2,2 C 2,6 C 2,6 km/h (1 Bft)
14.11.2012 20:30 2,8 C 96 % 0,0 l/m 0,8 km/h (0 Bft) W-NW 292 2,2 C 2,6 C 0,0 km/h (0 Bft)
14.11.2012 20:35 2,8 C 96 % 0,0 l/m 1,0 km/h (0 Bft) W-NW 292 2,2 C 2,6 C 1,6 km/h (1 Bft)
14.11.2012 20:40 2,8 C 96 % 0,0 l/m 0,2 km/h (0 Bft) NW 315 2,2 C 2,6 C 1,9 km/h (1 Bft)
14.11.2012 20:45 2,8 C 96 % 0,0 l/m 0,8 km/h (0 Bft) W-NW 292 2,2 C 2,6 C 3,7 km/h (1 Bft)
14.11.2012 20:50 2,7 C 96 % 0,0 l/m 1,0 km/h (0 Bft) N-NW 337 2,1 C 2,6 C 0,0 km/h (0 Bft)
14.11.2012 20:55 2,7 C 96 % 0,0 l/m 0,8 km/h (0 Bft) N-NO 22 2,1 C 2,6 C 1,6 km/h (1 Bft)
14.11.2012 21:00 2,7 C 96 % 0,0 l/m 0,2 km/h (0 Bft) N-NO 22 2,1 C 2,6 C 0,0 km/h (0 Bft)
14.11.2012 21:05 2,7 C 96 % 0,0 l/m 0,2 km/h (0 Bft) N-NW 337 2,1 C 2,6 C 0,0 km/h (0 Bft)
14.11.2012 21:10 2,5 C 96 % 0,0 l/m 1,1 km/h (1 Bft) W-NW 292 1,9 C 2,5 C 2,1 km/h (1 Bft)
14.11.2012 21:15 2,5 C 96 % 0,0 l/m 1,9 km/h (1 Bft) N-NW 337 1,9 C 2,4 C 0,0 km/h (0 Bft)
14.11.2012 21:20 2,5 C 96 % 0,0 l/m 1,0 km/h (0 Bft) N 360 1,9 C 2,3 C 0,0 km/h (0 Bft)
14.11.2012 21:25 2,5 C 96 % 0,0 l/m 0,2 km/h (0 Bft) S-SW 202 1,9 C 2,3 C 0,0 km/h (0 Bft)
14.11.2012 21:30 2,5 C 96 % 0,0 l/m 0,0 km/h (0 Bft) NO 45 1,9 C 2,2 C 0,0 km/h (0 Bft)
14.11.2012 21:35 2,4 C 96 % 0,0 l/m 0,2 km/h (0 Bft) N-NO 22 1,8 C 2,2 C 0,0 km/h (0 Bft)
14.11.2012 21:37 2,3 C 96 % 0,0 l/m 0,2 km/h (0 Bft) O 90 1,7 C 2,1 C 0,0 km/h (0 Bft)
14.11.2012 21:42 2,2 C 96 % 0,0 l/m 0,0 km/h (0 Bft) O 90 1,6 C 2,0 C 0,0 km/h (0 Bft)
14.11.2012 21:45 2,2 C 96 % 0,0 l/m 0,0 km/h (0 Bft) O 90 1,6 C 2,0 C 0,0 km/h (0 Bft)
14.11.2012 21:50 2,1 C 96 % 0,0 l/m 0,3 km/h (0 Bft) NO 45 1,5 C 1,9 C 1,6 km/h (1 Bft)
14.11.2012 21:55 2,1 C 96 % 0,0 l/m 0,5 km/h (0 Bft) N 360 1,5 C 1,8 C 2,3 km/h (1 Bft)
14.11.2012 22:00 1,9 C 97 % 0,0 l/m 0,8 km/h (0 Bft) N 360 1,5 C 1,7 C 1,8 km/h (1 Bft)
14.11.2012 22:05 1,8 C 97 % 0,0 l/m 1,4 km/h (1 Bft) N-NW 337 1,4 C 1,6 C 2,9 km/h (1 Bft)
14.11.2012 22:10 1,8 C 96 % 0,0 l/m 1,8 km/h (1 Bft) N-NW 337 1,2 C 1,6 C 1,6 km/h (1 Bft)
14.11.2012 22:15 1,8 C 96 % 0,0 l/m 1,3 km/h (1 Bft) N-NO 22 1,2 C 1,5 C 0,0 km/h (0 Bft)
14.11.2012 22:20 1,8 C 97 % 0,0 l/m 0,3 km/h (0 Bft) NO 45 1,4 C 1,5 C 0,0 km/h (0 Bft)
14.11.2012 22:25 1,8 C 97 % 0,0 l/m 0,0 km/h (0 Bft) N-NO 22 1,4 C 1,5 C 0,0 km/h (0 Bft)
14.11.2012 22:30 1,8 C 97 % 0,0 l/m 0,0 km/h (0 Bft) SO 135 1,4 C 1,4 C 0,0 km/h (0 Bft)
14.11.2012 22:35 1,8 C 97 % 0,0 l/m 0,0 km/h (0 Bft) S-SO 157 1,4 C 1,4 C 0,0 km/h (0 Bft)
14.11.2012 22:40 1,8 C 97 % 0,0 l/m 0,2 km/h (0 Bft) S-SW 202 1,4 C 1,4 C 1,6 km/h (1 Bft)
14.11.2012 22:45 1,8 C 97 % 0,0 l/m 0,3 km/h (0 Bft) SW 225 1,4 C 1,5 C 1,8 km/h (1 Bft)
14.11.2012 22:50 1,8 C 97 % 0,0 l/m 0,2 km/h (0 Bft) S 180 1,4 C 1,5 C 0,0 km/h (0 Bft)
14.11.2012 22:55 1,8 C 97 % 0,0 l/m 0,3 km/h (0 Bft) S 180 1,4 C 1,5 C 2,1 km/h (1 Bft)
14.11.2012 23:00 1,8 C 97 % 0,0 l/m 0,2 km/h (0 Bft) S-SW 202 1,4 C 1,5 C 0,0 km/h (0 Bft)
14.11.2012 23:05 1,8 C 97 % 0,0 l/m 0,0 km/h (0 Bft) W 270 1,4 C 1,5 C 0,0 km/h (0 Bft)
14.11.2012 23:10 1,7 C 97 % 0,0 l/m 0,5 km/h (0 Bft) SW 225 1,3 C 1,4 C 0,0 km/h (0 Bft)
14.11.2012 23:15 1,7 C 97 % 0,0 l/m 0,5 km/h (0 Bft) S 180 1,3 C 1,4 C 1,6 km/h (1 Bft)
14.11.2012 23:20 1,7 C 97 % 0,0 l/m 0,0 km/h (0 Bft) S 180 1,3 C 1,3 C 0,0 km/h (0 Bft)
14.11.2012 23:25 1,6 C 97 % 0,0 l/m 0,2 km/h (0 Bft) SO 135 1,2 C 1,3 C 1,6 km/h (1 Bft)
14.11.2012 23:30 1,5 C 97 % 0,0 l/m 0,2 km/h (0 Bft) NO 45 1,1 C 1,2 C 0,0 km/h (0 Bft)
14.11.2012 23:35 1,3 C 97 % 0,0 l/m 0,3 km/h (0 Bft) W-NW 292 0,9 C 1,0 C 2,3 km/h (1 Bft)
14.11.2012 23:40 1,0 C 97 % 0,0 l/m 1,4 km/h (1 Bft) N-NW 337 0,6 C 0,8 C 2,3 km/h (1 Bft)
14.11.2012 23:45 0,8 C 97 % 0,0 l/m 1,8 km/h (1 Bft) N 360 0,4 C 0,6 C 2,6 km/h (1 Bft)
14.11.2012 23:50 0,5 C 97 % 0,0 l/m 2,6 km/h (1 Bft) N 360 0,1 C 0,1 C 3,4 km/h (1 Bft)
14.11.2012 23:55 0,4 C 97 % 0,0 l/m 3,2 km/h (1 Bft) N 360 -0,0 C -0,5 C 2,7 km/h (1 Bft)
_ Min-Zeit 23:55 12:55 - 23:20 - - 23:55 23:55 23:30
Minimum _ 0,4 C 86 % - 0,0 km/h (0 Bft) - - -0,0 C -0,5 C 0,0 km/h (0 Bft)
_ Max-Zeit 13:05 09:55 23:55 14:25 - - 02:30 13:15 14:50
Maximum _ 5,2 C 98 % 0,0 l/m 5,1 km/h
W (1 Bft)
- - 3,7 C 6,1 C 9,3 km/h
W-NW (2 Bft)
Durchschnitt _ 3,4 C 95 % #0,0 l/m 1,5 km/h (1 Bft) W-NW - 2,6 C 3,4 C 2,0 km/h (1 Bft)